X  Schließen METAR Luftfahrt Wetterdaten     LOWW Vienna International Airport
Temperatur
2°C Temperatur
-1°C Taupunkt
81% Feuchtigkeit



Wind
0 M/S
1 MPS
2 km/h
1 KTS



Kein Wind
N
Aktuelle Wetterlage

Teilweise bewölkt Teilweise bewölkt
Luftdruck 1011.92 (hPa) - 29.88 (inHg)
Sichtweite 6.2 (Meile) - 10 (Km)
Flughafen
Flughafen Code LOWW

Position : Vienna International Airport
Entfernung: 58 (Km)

Metar:
LOWW 080450Z VRB01KT 9999 FEW042 SCT050 02/M01 Q1012 NOSIG

Zeit: 08-12-2022 05:50 CET